Endicott, Washington
Current Conditions -  °F | °C
As of 10:53 PM on Thursday 18 Dec 2014 (Local Time) from KPUW Reporting Station
Overcast Overcast  
Wind Chill: 35°   Ceiling: 8500
Heat Index: 41°   Visibility: 10mi
Dew Point: 35°   Wind: 10mph
Humidity: 79%   Direction: 120°ESE
Pressure: 29.95"   Gusts: NA
Location:  46.93°N, 117.68°W
Report Text: KPUW 190653Z AUTO 12009KT 10SM OVC085 05/02 A2995 RMK AO2 SLP155 T00500017
Loading
Personal Weather Stations






























Interactive Weather Map New forecast layout! Learn more

10-Day Weather Forecast

Advertisements
Track Severe Weather on mobile